Weather at Zamperini Field

Public forecast

Using degrees Fahrenheit for public forecast. Weather courtesy of forecast.io.

Current aviation weather report (METAR) for Zamperini Field

Retrieved 2021/01/22 00:47 UTC (37 minutes ago):

KTOA 220047Z 23005KT 10SM SKC 18/07 A3000

Closest aviation forecast (TAF) to Zamperini Field

Closest forecast is Los Angeles International Airport, 9.0 nm (16.7 km) NNW. Retrieved 2021-01-22 00:48 UTC (36 minutes ago):

TAF KLAX 212345Z 2200/2306 26008KT P6SM FEW080 FEW250 FM220500 VRB03KT P6SM BKN020 FM220800 12005KT P6SM OVC008 FM221500 13006KT P6SM OVC015 FM221900 25006KT P6SM SCT015 FM222100 25010KT P6SM BKN018 FM230300 26006KT P6SM VCSH BKN015